Time;durP1;ratioP1;P1;durP2;ratioP2;P2;SDS_P1;SDS_P2;PMS_P1;PMS_P2;Temp;Humidity;BMP_temperature;BMP_pressure;BME280_temperature;BME280_humidity;BME280_pressure;Samples;Min_cycle;Max_cycle;Signal;HPM_P1;HPM_P2
2022/03/01 00:00:10;;;;;;;320.52;81.20;;;;;;;2.39;69.17;100540.38;343895;28;1519;-73
2022/03/01 00:00:20;;;;;;;324.08;83.72;;;;;;;2.39;69.13;100530.03;340452;28;1382;-73
2022/03/01 00:00:31;;;;;;;323.87;85.07;;;;;;;2.41;69.22;100534.38;342915;28;1360;-73
2022/03/01 00:00:41;;;;;;;323.45;84.88;;;;;;;2.46;68.80;100537.00;341710;28;1632;-73
2022/03/01 00:00:52;;;;;;;322.13;82.47;;;;;;;2.48;69.16;100530.13;340325;29;968;-73
2022/03/01 00:01:02;;;;;;;321.95;81.28;;;;;;;2.47;68.59;100529.25;338953;29;1588;-73
2022/03/01 00:01:13;;;;;;;321.23;81.90;;;;;;;2.50;68.75;100531.00;340375;28;1803;-73
2022/03/01 00:01:23;;;;;;;320.98;82.75;;;;;;;2.49;68.33;100531.84;340747;28;1332;-73
2022/03/01 00:01:33;;;;;;;325.93;84.20;;;;;;;2.51;69.31;100531.00;341922;28;1601;-73
2022/03/01 00:01:44;;;;;;;333.30;85.38;;;;;;;2.49;69.32;100534.44;342729;28;1364;-73
2022/03/01 00:01:54;;;;;;;339.63;88.60;;;;;;;2.49;69.49;100532.72;340298;28;1429;-73
2022/03/01 00:02:05;;;;;;;339.33;88.30;;;;;;;2.51;68.46;100537.88;340402;29;972;-73
2022/03/01 00:02:15;;;;;;;335.37;88.10;;;;;;;2.53;68.80;100534.47;340365;29;858;-72
2022/03/01 00:02:26;;;;;;;331.80;86.78;;;;;;;2.57;68.99;100540.50;342715;28;1330;-73
2022/03/01 00:02:36;;;;;;;327.17;87.27;;;;;;;2.55;68.67;100532.75;342960;28;941;-73
2022/03/01 00:02:47;;;;;;;321.52;85.15;;;;;;;2.56;69.59;100541.38;340603;28;830;-73
2022/03/01 00:02:57;;;;;;;317.77;83.77;;;;;;;2.51;69.38;100535.31;340018;28;1303;-73
2022/03/01 00:03:07;;;;;;;315.50;82.13;;;;;;;2.50;69.18;100533.56;338411;29;936;-73
2022/03/01 00:03:18;;;;;;;316.53;81.37;;;;;;;2.51;69.45;100532.72;340019;28;1413;-73
2022/03/01 00:03:29;;;;;;;315.65;79.75;;;;;;;2.55;69.29;100537.06;342919;28;916;-73
2022/03/01 00:03:39;;;;;;;314.48;78.68;;;;;;;2.56;69.26;100534.47;342959;28;830;-73
2022/03/01 00:03:50;;;;;;;313.40;79.23;;;;;;;2.57;69.46;100530.19;340359;29;920;-73
2022/03/01 00:04:00;;;;;;;311.85;78.68;;;;;;;2.58;69.00;100534.50;341486;28;1996;-74
2022/03/01 00:04:11;;;;;;;311.83;79.87;;;;;;;2.60;69.16;100535.38;341417;28;1198;-73
2022/03/01 00:04:21;;;;;;;310.33;79.72;;;;;;;2.61;69.03;100540.50;341543;28;869;-73
2022/03/01 00:04:31;;;;;;;310.57;80.77;;;;;;;2.61;69.10;100539.66;342951;28;1180;-73
2022/03/01 00:04:42;;;;;;;308.45;79.07;;;;;;;2.63;69.13;100536.22;341705;28;885;-73
2022/03/01 00:04:52;;;;;;;308.87;78.50;;;;;;;2.66;69.06;100540.53;342928;28;877;-73
2022/03/01 00:05:03;;;;;;;309.52;79.88;;;;;;;2.68;68.95;100544.88;342767;28;896;-73
2022/03/01 00:05:13;;;;;;;311.17;80.83;;;;;;;2.63;68.69;100536.22;341273;28;1619;-73
2022/03/01 00:05:24;;;;;;;313.47;82.53;;;;;;;2.66;68.76;100545.72;340470;29;912;-73
2022/03/01 00:05:34;;;;;;;316.67;83.13;;;;;;;2.68;69.04;100538.84;340172;28;1187;-73
2022/03/01 00:05:45;;;;;;;321.20;83.47;;;;;;;2.64;67.92;100531.91;342705;28;1192;-73
2022/03/01 00:05:55;;;;;;;317.80;81.93;;;;;;;2.56;68.68;100538.78;340413;29;1277;-73
2022/03/01 00:06:05;;;;;;;313.17;81.47;;;;;;;2.48;68.38;100540.44;341802;28;2228;-73
2022/03/01 00:06:16;;;;;;;311.00;80.70;;;;;;;2.44;68.95;100538.69;340803;28;1313;-73
2022/03/01 00:06:26;;;;;;;310.73;79.95;;;;;;;2.47;68.73;100530.97;340347;29;916;-73
2022/03/01 00:06:37;;;;;;;312.10;79.67;;;;;;;2.48;68.95;100532.69;342811;28;1436;-73
2022/03/01 00:06:47;;;;;;;314.37;79.77;;;;;;;2.49;68.88;100532.72;341585;28;794;-73
2022/03/01 00:06:57;;;;;;;317.57;81.07;;;;;;;2.51;69.08;100532.72;340087;28;1293;-74
2022/03/01 00:07:08;;;;;;;316.95;80.63;;;;;;;2.50;68.54;100534.44;338855;29;1015;-73
2022/03/01 00:07:18;;;;;;;314.90;80.63;;;;;;;2.50;68.50;100538.75;341495;28;872;-73
2022/03/01 00:07:29;;;;;;;316.23;81.13;;;;;;;2.45;68.47;100530.09;342703;28;1449;-73
2022/03/01 00:07:39;;;;;;;324.20;83.77;;;;;;;2.45;68.95;100530.97;338609;28;1309;-74
2022/03/01 00:07:50;;;;;;;335.15;87.13;;;;;;;2.44;69.40;100539.56;336350;29;1206;-73
2022/03/01 00:08:00;;;;;;;336.73;87.57;;;;;;;2.44;69.25;100538.69;337460;29;802;-73
2022/03/01 00:08:10;;;;;;;336.80;89.15;;;;;;;2.41;68.72;100533.50;340403;28;1342;-73
2022/03/01 00:08:21;;;;;;;339.63;91.77;;;;;;;2.37;69.08;100534.34;344170;28;877;-73
2022/03/01 00:08:31;;;;;;;344.33;92.93;;;;;;;2.33;68.67;100536.03;342753;28;1194;-73
2022/03/01 00:08:41;;;;;;;338.00;90.40;;;;;;;2.28;69.51;100535.13;342985;28;935;-73
2022/03/01 00:08:53;;;;;;;332.07;86.73;;;;;;;2.34;69.61;100536.03;340236;29;1592;-74
2022/03/01 00:09:04;;;;;;;326.80;84.20;;;;;;;2.38;69.17;100536.06;340292;28;1415;-73
2022/03/01 00:09:14;;;;;;;321.00;81.17;;;;;;;2.39;69.00;100527.47;340021;28;1283;-73
2022/03/01 00:09:25;;;;;;;314.67;79.00;;;;;;;2.42;69.22;100530.06;342842;28;852;-73
2022/03/01 00:09:35;;;;;;;312.02;78.90;;;;;;;2.44;69.18;100533.53;341416;28;948;-73
2022/03/01 00:09:46;;;;;;;313.33;80.32;;;;;;;2.45;68.79;100537.84;340153;28;1414;-73
2022/03/01 00:09:56;;;;;;;314.57;81.70;;;;;;;2.45;69.09;100535.25;344332;28;930;-73
2022/03/01 00:10:07;;;;;;;317.57;82.40;;;;;;;2.45;68.80;100527.50;345702;28;868;-73
2022/03/01 00:10:17;;;;;;;319.45;83.03;;;;;;;2.48;68.67;100535.28;342535;28;1121;-73
2022/03/01 00:10:27;;;;;;;321.83;84.20;;;;;;;2.51;69.11;100530.13;342796;28;1212;-73
2022/03/01 00:10:38;;;;;;;323.87;85.13;;;;;;;2.51;68.74;100531.00;341324;28;1578;-73
2022/03/01 00:10:48;;;;;;;330.85;86.47;;;;;;;2.53;69.18;100533.59;341472;28;1118;-73
2022/03/01 00:10:59;;;;;;;332.23;85.53;;;;;;;2.53;69.03;100538.75;341123;28;2242;-73
2022/03/01 00:11:11;;;;;;;329.73;84.93;;;;;;;2.50;69.07;100529.28;341481;28;1264;-73
2022/03/01 00:11:22;;;;;;;325.65;83.72;;;;;;;2.51;68.71;100535.31;340152;29;873;-73
2022/03/01 00:11:32;;;;;;;330.60;85.80;;;;;;;2.49;69.08;100537.00;340135;29;1652;-73
2022/03/01 00:11:43;;;;;;;334.23;87.73;;;;;;;2.50;68.80;100534.44;341441;28;1200;-74
2022/03/01 00:11:53;;;;;;;337.15;90.57;;;;;;;2.52;68.68;100535.31;342943;28;801;-73
2022/03/01 00:12:04;;;;;;;336.03;91.57;;;;;;;2.54;68.52;100530.16;340138;28;1272;-73
2022/03/01 00:12:14;;;;;;;337.20;91.55;;;;;;;2.53;69.18;100529.28;341435;28;1223;-73
2022/03/01 00:12:25;;;;;;;339.17;90.45;;;;;;;2.56;68.61;100531.03;341309;28;1201;-73
2022/03/01 00:12:35;;;;;;;339.87;90.77;;;;;;;2.58;69.20;100534.50;342687;28;1295;-73
2022/03/01 00:12:45;;;;;;;338.40;91.00;;;;;;;2.58;69.12;100540.53;338998;29;1992;-73
2022/03/01 00:12:56;;;;;;;337.15;92.13;;;;;;;2.58;68.57;100537.06;339666;28;1343;-73
2022/03/01 00:13:07;;;;;;;340.10;92.87;;;;;;;2.58;69.01;100531.91;340533;28;1325;-74
2022/03/01 00:13:18;;;;;;;341.13;92.90;;;;;;;2.60;68.68;100535.38;338815;29;1205;-73
2022/03/01 00:13:28;;;;;;;336.10;90.23;;;;;;;2.61;68.94;100531.91;342650;28;1334;-73
2022/03/01 00:13:39;;;;;;;327.25;86.32;;;;;;;2.60;69.01;100532.78;342948;28;1398;-73
2022/03/01 00:13:50;;;;;;;319.63;81.32;;;;;;;2.60;69.04;100537.94;340297;29;865;-74
2022/03/01 00:14:00;;;;;;;315.38;79.25;;;;;;;2.61;68.98;100532.75;340507;28;2022;-72
2022/03/01 00:14:11;;;;;;;313.40;78.17;;;;;;;2.58;69.54;100535.34;338888;29;893;-73
2022/03/01 00:14:21;;;;;;;308.92;77.55;;;;;;;2.61;69.13;100535.34;341562;28;1121;-73
2022/03/01 00:14:31;;;;;;;318.50;81.53;;;;;;;2.59;69.01;100533.63;342664;28;1184;-74
2022/03/01 00:14:42;;;;;;;324.85;84.70;;;;;;;2.53;69.16;100534.47;342840;28;971;-74
2022/03/01 00:14:52;;;;;;;329.47;87.77;;;;;;;2.50;68.87;100533.56;340228;29;1298;-74
2022/03/01 00:15:03;;;;;;;320.77;85.15;;;;;;;2.46;68.61;100534.41;342620;28;1284;-73
2022/03/01 00:15:14;;;;;;;320.58;85.07;;;;;;;2.47;68.78;100538.72;342519;28;1413;-73
2022/03/01 00:15:24;;;;;;;324.27;85.30;;;;;;;2.48;68.29;100530.97;341579;28;1226;-73
2022/03/01 00:15:34;;;;;;;331.00;86.53;;;;;;;2.49;68.54;100532.72;341822;28;1294;-73
2022/03/01 00:15:45;;;;;;;345.47;89.40;;;;;;;2.50;68.91;100533.56;341065;28;2437;-73
2022/03/01 00:15:56;;;;;;;374.20;97.88;;;;;;;2.48;68.89;100533.56;340145;29;1225;-73
2022/03/01 00:16:06;;;;;;;391.93;105.57;;;;;;;2.48;69.04;100530.97;340112;29;1367;-73
2022/03/01 00:16:17;;;;;;;388.30;105.97;;;;;;;2.47;69.28;100537.00;342766;28;1167;-73
2022/03/01 00:16:27;;;;;;;365.70;99.43;;;;;;;2.48;69.20;100532.69;344277;28;894;-73
2022/03/01 00:16:38;;;;;;;351.93;95.47;;;;;;;2.48;68.87;100528.41;341415;28;1197;-73
2022/03/01 00:16:48;;;;;;;348.08;93.55;;;;;;;2.50;68.81;100533.56;341472;28;1589;-73
2022/03/01 00:16:59;;;;;;;349.63;93.93;;;;;;;2.53;69.40;100533.59;342814;28;1184;-73
2022/03/01 00:17:09;;;;;;;356.10;92.82;;;;;;;2.56;68.99;100528.44;340332;29;1287;-73
2022/03/01 00:17:19;;;;;;;360.73;94.63;;;;;;;2.57;69.08;100527.59;343299;28;1201;-73
2022/03/01 00:17:30;;;;;;;363.27;95.15;;;;;;;2.58;69.45;100534.50;342796;28;975;-74
2022/03/01 00:17:40;;;;;;;360.03;95.37;;;;;;;2.56;68.53;100528.44;342674;28;1265;-73
2022/03/01 00:17:50;;;;;;;357.15;93.57;;;;;;;2.58;68.72;100527.59;338616;29;1257;-74
2022/03/01 00:18:01;;;;;;;351.20;91.43;;;;;;;2.58;69.01;100534.50;338222;29;1311;-73
2022/03/01 00:18:11;;;;;;;351.13;91.30;;;;;;;2.57;68.99;100540.50;339156;29;869;-73
2022/03/01 00:18:22;;;;;;;349.77;91.35;;;;;;;2.56;69.07;100533.63;341573;28;872;-73
2022/03/01 00:18:32;;;;;;;340.90;89.43;;;;;;;2.49;69.03;100531.84;341472;28;943;-73
2022/03/01 00:18:43;;;;;;;336.33;88.57;;;;;;;2.44;68.59;100530.94;338828;28;1331;-73
2022/03/01 00:18:53;;;;;;;326.08;85.47;;;;;;;2.45;68.74;100530.09;340312;28;1324;-73
2022/03/01 00:19:04;;;;;;;331.37;86.83;;;;;;;2.47;68.58;100528.38;340098;29;1348;-73
2022/03/01 00:19:14;;;;;;;330.48;88.18;;;;;;;2.49;68.75;100532.72;340176;29;1541;-73
2022/03/01 00:19:27;;;;;;;336.50;89.60;;;;;;;2.52;68.73;100537.03;340073;29;929;-73
2022/03/01 00:19:37;;;;;;;336.98;89.70;;;;;;;2.56;68.82;100536.19;343946;28;931;-73
2022/03/01 00:19:48;;;;;;;341.02;91.10;;;;;;;2.56;68.76;100531.91;342757;28;2225;-73
2022/03/01 00:19:58;;;;;;;343.17;92.33;;;;;;;2.56;68.53;100528.44;342680;28;1317;-73
2022/03/01 00:20:09;;;;;;;340.80;90.82;;;;;;;2.57;69.06;100535.34;340456;28;1351;-73
2022/03/01 00:20:20;;;;;;;343.10;90.45;;;;;;;2.53;68.50;100528.44;341294;28;1027;-73
2022/03/01 00:20:30;;;;;;;347.60;91.17;;;;;;;2.53;69.05;100534.47;341313;28;1993;-73
2022/03/01 00:20:40;;;;;;;353.55;93.00;;;;;;;2.52;68.76;100527.56;341696;28;1282;-73
2022/03/01 00:20:51;;;;;;;355.47;93.57;;;;;;;2.52;68.75;100527.56;340245;29;1007;-74
2022/03/01 00:21:01;;;;;;;352.10;93.17;;;;;;;2.53;69.11;100529.28;344041;28;1286;-73
2022/03/01 00:21:12;;;;;;;347.55;91.38;;;;;;;2.54;68.90;100525.00;344144;28;1441;-73
2022/03/01 00:21:22;;;;;;;346.83;91.13;;;;;;;2.53;69.43;100531.88;344200;28;833;-73
2022/03/01 00:21:32;;;;;;;343.77;90.87;;;;;;;2.52;69.25;100526.69;341558;28;1175;-73
2022/03/01 00:21:43;;;;;;;342.57;91.40;;;;;;;2.50;68.68;100528.41;344042;28;1207;-73
2022/03/01 00:21:53;;;;;;;333.92;87.35;;;;;;;2.48;68.88;100527.53;343002;28;928;-73
2022/03/01 00:22:04;;;;;;;332.10;84.78;;;;;;;2.49;68.95;100529.25;340170;28;1688;-73
2022/03/01 00:22:14;;;;;;;332.07;84.07;;;;;;;2.51;69.25;100524.97;344223;28;1274;-73
2022/03/01 00:22:25;;;;;;;331.85;85.20;;;;;;;2.54;68.72;100527.56;344113;28;1712;-73
2022/03/01 00:22:35;;;;;;;331.97;86.33;;;;;;;2.52;68.97;100531.88;344288;28;1655;-73
2022/03/01 00:22:46;;;;;;;331.83;87.35;;;;;;;2.53;68.90;100525.84;340610;28;826;-74
2022/03/01 00:22:56;;;;;;;328.33;87.23;;;;;;;2.52;69.07;100524.13;338509;29;814;-74
2022/03/01 00:23:06;;;;;;;328.13;86.73;;;;;;;2.55;69.02;100526.72;340680;28;1374;-74
2022/03/01 00:23:17;;;;;;;322.47;83.47;;;;;;;2.53;69.23;100523.25;343892;28;1304;-73
2022/03/01 00:23:27;;;;;;;318.90;81.67;;;;;;;2.51;69.21;100524.97;343910;28;1232;-73
2022/03/01 00:23:38;;;;;;;310.92;77.80;;;;;;;2.54;68.71;100525.00;344155;28;951;-74
2022/03/01 00:23:48;;;;;;;308.70;76.15;;;;;;;2.58;68.97;100524.16;341507;28;1675;-74
2022/03/01 00:23:58;;;;;;;308.53;74.43;;;;;;;2.59;68.47;100515.56;341657;28;855;-73
2022/03/01 00:24:09;;;;;;;307.47;73.93;;;;;;;2.63;68.88;100522.44;340742;28;1321;-73
2022/03/01 00:24:19;;;;;;;304.10;73.47;;;;;;;2.64;69.40;100519.84;342233;28;2108;-73
2022/03/01 00:24:30;;;;;;;304.00;74.87;;;;;;;2.66;69.18;100522.44;341408;28;1204;-73
2022/03/01 00:24:40;;;;;;;307.25;76.30;;;;;;;2.64;69.07;100516.41;345618;28;821;-73
2022/03/01 00:24:50;;;;;;;311.53;78.27;;;;;;;2.63;68.87;100519.84;339713;29;1186;-72
2022/03/01 00:25:01;;;;;;;317.13;80.75;;;;;;;2.62;68.49;100523.28;337356;29;1285;-73
2022/03/01 00:25:12;;;;;;;320.13;83.43;;;;;;;2.61;68.64;100522.41;339937;29;1330;-73
2022/03/01 00:25:22;;;;;;;320.57;83.43;;;;;;;2.59;69.05;100512.97;340298;28;1973;-73
2022/03/01 00:25:32;;;;;;;318.20;82.43;;;;;;;2.63;68.47;100519.84;341390;28;1408;-73
2022/03/01 00:25:43;;;;;;;316.40;80.67;;;;;;;2.62;69.12;100518.13;340191;28;1185;-73
2022/03/01 00:25:53;;;;;;;316.87;80.83;;;;;;;2.61;68.98;100516.38;338547;29;1543;-73
2022/03/01 00:26:04;;;;;;;314.50;80.27;;;;;;;2.62;68.94;100518.13;338684;29;1705;-73
2022/03/01 00:26:14;;;;;;;313.33;80.23;;;;;;;2.63;69.36;100519.84;341432;28;841;-73
2022/03/01 00:26:24;;;;;;;313.33;80.40;;;;;;;2.65;68.72;100510.38;344875;28;1289;-73
2022/03/01 00:26:35;;;;;;;313.80;79.70;;;;;;;2.65;68.57;100519.00;345611;28;1008;-73
2022/03/01 00:26:45;;;;;;;312.20;78.80;;;;;;;2.65;69.20;100513.84;340153;28;1453;-73
2022/03/01 00:26:56;;;;;;;311.00;78.90;;;;;;;2.68;68.76;100513.00;342496;28;1428;-73
2022/03/01 00:27:06;;;;;;;309.27;78.55;;;;;;;2.71;68.93;100517.31;343768;28;2274;-73
2022/03/01 00:27:17;;;;;;;307.23;77.50;;;;;;;2.71;68.68;100520.75;342249;28;1516;-73
2022/03/01 00:27:27;;;;;;;307.17;77.05;;;;;;;2.72;69.10;100519.03;340075;28;1281;-73
2022/03/01 00:27:37;;;;;;;308.27;78.17;;;;;;;2.72;68.91;100514.75;343904;28;1338;-73
2022/03/01 00:27:48;;;;;;;310.48;79.72;;;;;;;2.74;68.81;100518.19;344140;28;1577;-73
2022/03/01 00:27:58;;;;;;;308.97;79.60;;;;;;;2.74;68.60;100514.75;343967;28;861;-73
2022/03/01 00:28:08;;;;;;;307.15;79.70;;;;;;;2.71;68.66;100517.31;340881;28;1678;-73
2022/03/01 00:28:19;;;;;;;305.97;79.53;;;;;;;2.67;68.55;100516.44;342843;28;1755;-73
2022/03/01 00:28:29;;;;;;;303.90;78.28;;;;;;;2.65;68.49;100512.97;345062;28;1706;-73
2022/03/01 00:28:40;;;;;;;302.63;75.27;;;;;;;2.64;68.57;100512.09;341384;28;2063;-73
2022/03/01 00:28:50;;;;;;;302.33;74.13;;;;;;;2.66;68.61;100512.13;341485;28;1204;-73
2022/03/01 00:29:00;;;;;;;303.02;74.75;;;;;;;2.63;68.68;100509.50;342762;28;872;-73
2022/03/01 00:29:11;;;;;;;304.50;75.87;;;;;;;2.63;68.41;100509.50;343646;28;1532;-73
2022/03/01 00:29:21;;;;;;;306.45;75.80;;;;;;;2.62;68.80;100507.78;342684;28;935;-73
2022/03/01 00:29:32;;;;;;;308.15;77.32;;;;;;;2.60;68.85;100509.53;340003;29;1362;-73
2022/03/01 00:29:42;;;;;;;305.20;77.43;;;;;;;2.60;68.87;100509.53;340330;29;1187;-73
2022/03/01 00:29:53;;;;;;;304.40;77.13;;;;;;;2.59;68.35;100507.81;342810;28;881;-73
2022/03/01 00:30:03;;;;;;;303.90;75.63;;;;;;;2.58;68.98;100511.25;344188;28;1423;-74
2022/03/01 00:30:14;;;;;;;303.67;75.78;;;;;;;2.58;68.17;100506.94;341529;28;2301;-74
2022/03/01 00:30:24;;;;;;;303.33;75.67;;;;;;;2.58;68.82;100506.06;339979;28;1239;-73
2022/03/01 00:30:35;;;;;;;302.88;75.57;;;;;;;2.57;68.54;100512.09;341534;28;941;-73
2022/03/01 00:30:45;;;;;;;303.80;76.47;;;;;;;2.58;68.74;100511.25;342321;28;1214;-74
2022/03/01 00:30:56;;;;;;;304.00;76.63;;;;;;;2.58;68.72;100503.50;343895;28;1120;-73
2022/03/01 00:31:06;;;;;;;303.67;76.10;;;;;;;2.60;69.10;100504.38;342848;28;877;-73
2022/03/01 00:31:16;;;;;;;303.75;75.75;;;;;;;2.61;68.88;100506.06;339909;28;1491;-73
2022/03/01 00:31:27;;;;;;;304.63;76.70;;;;;;;2.63;69.24;100506.94;342835;28;921;-73
2022/03/01 00:31:37;;;;;;;304.70;77.25;;;;;;;2.65;68.76;100507.81;341023;28;2213;-74
2022/03/01 00:31:48;;;;;;;303.47;77.13;;;;;;;2.66;68.92;100510.41;344090;28;1156;-73
2022/03/01 00:31:58;;;;;;;303.60;76.47;;;;;;;2.63;68.55;100504.34;340161;29;952;-74
2022/03/01 00:32:10;;;;;;;305.33;76.17;;;;;;;2.63;68.36;100504.34;340593;28;1217;-74
2022/03/01 00:32:20;;;;;;;305.25;75.65;;;;;;;2.64;68.78;100503.50;340014;29;874;-73
2022/03/01 00:32:31;;;;;;;306.30;75.93;;;;;;;2.65;68.53;100507.81;339800;29;1565;-73
2022/03/01 00:32:41;;;;;;;303.93;76.20;;;;;;;2.62;68.44;100508.66;340762;28;1287;-73
2022/03/01 00:32:51;;;;;;;304.07;77.33;;;;;;;2.62;68.51;100503.47;340155;28;1903;-74
2022/03/01 00:33:02;;;;;;;304.20;78.10;;;;;;;2.61;68.58;100504.34;339799;28;881;-74
2022/03/01 00:33:12;;;;;;;303.60;77.00;;;;;;;2.61;68.75;100511.22;344130;28;1176;-73
2022/03/01 00:33:23;;;;;;;303.40;76.68;;;;;;;2.57;68.72;100501.75;341473;28;1215;-73
2022/03/01 00:33:33;;;;;;;301.73;75.20;;;;;;;2.54;68.65;100501.75;342565;28;879;-73
2022/03/01 00:33:43;;;;;;;302.77;75.13;;;;;;;2.56;69.10;100507.78;342804;28;979;-73
2022/03/01 00:33:54;;;;;;;301.87;74.67;;;;;;;2.57;69.21;100504.34;341547;28;1765;-73
2022/03/01 00:34:04;;;;;;;302.48;74.70;;;;;;;2.60;68.74;100506.94;338761;29;1400;-73
2022/03/01 00:34:14;;;;;;;302.17;74.20;;;;;;;2.59;69.01;100511.25;340543;28;1277;-73
2022/03/01 00:34:25;;;;;;;304.00;75.40;;;;;;;2.55;68.69;100506.06;341266;28;949;-73
2022/03/01 00:34:35;;;;;;;304.37;75.47;;;;;;;2.57;68.93;100504.34;341286;28;1314;-73
2022/03/01 00:34:46;;;;;;;304.60;75.97;;;;;;;2.59;68.81;100502.63;342799;28;1280;-73
2022/03/01 00:34:56;;;;;;;303.30;74.63;;;;;;;2.58;68.68;100499.19;342864;28;2022;-73
2022/03/01 00:35:07;;;;;;;302.97;73.67;;;;;;;2.60;68.25;100501.78;342584;28;1256;-74
2022/03/01 00:35:18;;;;;;;303.42;74.65;;;;;;;2.61;68.51;100500.88;340976;28;1338;-74
2022/03/01 00:35:28;;;;;;;304.20;75.53;;;;;;;2.64;68.88;100500.91;341440;28;1102;-73
2022/03/01 00:35:39;;;;;;;303.63;76.78;;;;;;;2.66;68.32;100505.22;344032;28;1857;-73
2022/03/01 00:35:49;;;;;;;303.80;76.80;;;;;;;2.67;68.08;100504.38;342723;28;1410;-73
2022/03/01 00:35:59;;;;;;;302.05;75.50;;;;;;;2.67;68.09;100506.09;344042;28;1309;-73
2022/03/01 00:36:10;;;;;;;302.30;74.77;;;;;;;2.62;68.26;100503.47;342685;28;1212;-73
2022/03/01 00:36:20;;;;;;;301.07;73.70;;;;;;;2.58;68.45;100503.50;342963;28;1859;-73
2022/03/01 00:36:31;;;;;;;301.13;74.47;;;;;;;2.54;68.38;100507.78;344082;28;972;-73
2022/03/01 00:36:41;;;;;;;302.13;75.90;;;;;;;2.53;68.27;100508.63;342809;28;956;-73
2022/03/01 00:36:52;;;;;;;303.20;77.10;;;;;;;2.51;68.48;100500.00;342690;28;911;-74
2022/03/01 00:37:02;;;;;;;304.08;76.85;;;;;;;2.52;68.66;100500.88;341397;28;1757;-73
2022/03/01 00:37:13;;;;;;;303.40;76.13;;;;;;;2.54;68.62;100504.31;340053;29;1481;-73
2022/03/01 00:37:23;;;;;;;307.60;75.13;;;;;;;2.54;68.86;100502.59;341300;28;1383;-73
2022/03/01 00:37:33;;;;;;;307.57;75.47;;;;;;;2.57;68.69;100499.16;341089;28;1193;-73
2022/03/01 00:37:44;;;;;;;305.48;74.82;;;;;;;2.60;68.54;100504.38;340416;28;1228;-73
2022/03/01 00:37:57;;;;;;;303.38;76.65;;;;;;;2.62;68.81;100497.44;339777;28;901;-73
2022/03/01 00:38:07;;;;;;;303.83;77.03;;;;;;;2.65;68.40;100503.50;341024;28;864;-73
2022/03/01 00:38:18;;;;;;;303.48;76.45;;;;;;;2.65;68.65;100512.97;341150;28;838;-73
2022/03/01 00:38:28;;;;;;;302.90;75.73;;;;;;;2.64;68.16;100500.91;338685;29;866;-73
2022/03/01 00:38:39;;;;;;;302.67;76.47;;;;;;;2.62;68.28;100500.91;341486;28;881;-75
2022/03/01 00:38:49;;;;;;;301.97;76.43;;;;;;;2.60;68.76;100500.03;341472;28;877;-73
2022/03/01 00:38:59;;;;;;;301.00;75.15;;;;;;;2.56;68.18;100500.03;341661;28;1211;-73
2022/03/01 00:39:10;;;;;;;301.03;74.60;;;;;;;2.56;68.12;100503.47;340203;29;854;-73
2022/03/01 00:39:20;;;;;;;301.10;74.05;;;;;;;2.56;68.28;100508.66;343793;28;1346;-73
2022/03/01 00:39:31;;;;;;;301.00;74.10;;;;;;;2.56;68.05;100497.44;342762;28;825;-73
2022/03/01 00:39:41;;;;;;;300.55;73.88;;;;;;;2.58;68.12;100506.06;342688;28;1784;-73
2022/03/01 00:39:51;;;;;;;301.27;74.60;;;;;;;2.58;67.80;100503.50;339615;28;2587;-73
2022/03/01 00:40:02;;;;;;;301.55;75.13;;;;;;;2.58;67.56;100500.91;341215;28;1443;-73
2022/03/01 00:40:13;;;;;;;300.67;74.53;;;;;;;2.58;67.95;100504.34;341262;28;1214;-73
2022/03/01 00:40:23;;;;;;;299.67;73.70;;;;;;;2.59;67.72;100503.50;340925;28;1484;-73
2022/03/01 00:40:34;;;;;;;298.17;72.25;;;;;;;2.56;68.06;100497.44;338311;29;942;-73
2022/03/01 00:40:44;;;;;;;298.70;73.13;;;;;;;2.54;68.15;100502.59;341152;28;1289;-73
2022/03/01 00:40:55;;;;;;;298.65;73.45;;;;;;;2.47;67.98;100508.59;341259;28;939;-73
2022/03/01 00:41:05;;;;;;;299.17;73.80;;;;;;;2.47;67.64;100499.97;341355;28;1297;-72
2022/03/01 00:41:16;;;;;;;298.67;73.72;;;;;;;2.47;68.66;100507.72;341221;28;834;-73
2022/03/01 00:41:26;;;;;;;300.47;76.27;;;;;;;2.47;68.50;100505.13;341475;28;1304;-73
2022/03/01 00:41:36;;;;;;;300.85;75.68;;;;;;;2.48;68.45;100494.81;341489;28;1011;-73
2022/03/01 00:41:47;;;;;;;301.67;75.67;;;;;;;2.47;68.45;100505.13;341390;28;865;-73
2022/03/01 00:41:58;;;;;;;301.17;74.18;;;;;;;2.48;68.66;100509.44;340042;29;1629;-73
2022/03/01 00:42:08;;;;;;;301.52;75.63;;;;;;;2.46;67.85;100508.56;342645;28;1899;-73
2022/03/01 00:42:19;;;;;;;302.23;76.53;;;;;;;2.44;68.13;100507.69;342799;28;810;-72
2022/03/01 00:42:29;;;;;;;301.63;76.60;;;;;;;2.45;67.96;100509.44;343973;28;1301;-73
2022/03/01 00:42:40;;;;;;;301.30;76.03;;;;;;;2.43;68.03;100506.84;340914;28;1894;-73
2022/03/01 00:42:50;;;;;;;301.25;75.95;;;;;;;2.43;67.73;100506.84;341366;28;861;-73
2022/03/01 00:43:00;;;;;;;301.93;77.00;;;;;;;2.45;68.37;100504.25;342524;28;845;-73
2022/03/01 00:43:11;;;;;;;302.70;77.80;;;;;;;2.41;68.29;100500.78;342364;28;1232;-73
2022/03/01 00:43:22;;;;;;;302.20;77.03;;;;;;;2.42;68.20;100504.25;342700;28;1318;-73
2022/03/01 00:43:32;;;;;;;302.15;75.88;;;;;;;2.43;68.53;100505.97;345219;28;1252;-73
2022/03/01 00:43:43;;;;;;;299.88;73.90;;;;;;;2.44;68.67;100507.69;344099;28;1427;-73
2022/03/01 00:43:53;;;;;;;300.23;74.77;;;;;;;2.45;68.89;100506.84;342108;28;1560;-73
2022/03/01 00:44:04;;;;;;;299.23;72.90;;;;;;;2.44;68.62;100497.38;344161;28;873;-73
2022/03/01 00:44:14;;;;;;;300.70;72.90;;;;;;;2.49;68.57;100506.00;342886;28;818;-73
2022/03/01 00:44:24;;;;;;;300.37;72.77;;;;;;;2.51;68.13;100499.13;342548;28;1638;-72
2022/03/01 00:44:36;;;;;;;300.77;74.53;;;;;;;2.53;68.33;100511.22;341056;28;2110;-73
2022/03/01 00:44:46;;;;;;;299.17;73.78;;;;;;;2.56;68.67;100502.63;343419;28;1424;-73
2022/03/01 00:44:57;;;;;;;300.07;73.93;;;;;;;2.57;68.58;100505.22;341588;28;864;-73
2022/03/01 00:45:07;;;;;;;299.23;73.20;;;;;;;2.59;68.55;100507.81;338806;29;1119;-73
2022/03/01 00:45:18;;;;;;;300.25;73.82;;;;;;;2.58;68.43;100503.50;339830;29;1174;-73
2022/03/01 00:45:28;;;;;;;300.50;74.23;;;;;;;2.59;68.12;100500.03;340104;29;1573;-73
2022/03/01 00:45:39;;;;;;;300.63;74.20;;;;;;;2.59;68.29;100500.91;341181;28;1299;-73
2022/03/01 00:45:50;;;;;;;300.27;74.17;;;;;;;2.59;68.39;100494.88;341227;28;1380;-73
2022/03/01 00:46:00;;;;;;;298.35;73.47;;;;;;;2.62;68.43;100506.06;338742;28;1466;-73
2022/03/01 00:46:10;;;;;;;298.80;73.90;;;;;;;2.62;68.18;100503.47;340037;28;1335;-73
2022/03/01 00:46:22;;;;;;;300.53;74.23;;;;;;;2.64;68.44;100500.91;342767;28;968;-73
2022/03/01 00:46:33;;;;;;;301.75;75.13;;;;;;;2.65;68.24;100507.81;340150;28;1554;-73
2022/03/01 00:46:43;;;;;;;300.38;74.63;;;;;;;2.66;67.92;100504.38;340552;28;1723;-73
2022/03/01 00:46:54;;;;;;;299.43;73.70;;;;;;;2.65;67.95;100500.91;342768;28;877;-73
2022/03/01 00:47:04;;;;;;;299.60;74.07;;;;;;;2.65;67.85;100502.63;342675;28;826;-73
2022/03/01 00:47:15;;;;;;;300.57;74.63;;;;;;;2.61;68.02;100508.63;344391;28;1729;-73
2022/03/01 00:47:25;;;;;;;300.92;74.82;;;;;;;2.54;68.04;100501.75;342769;28;1212;-73
2022/03/01 00:47:35;;;;;;;300.77;73.93;;;;;;;2.50;67.92;100493.09;337367;29;1202;-73
2022/03/01 00:47:46;;;;;;;299.25;73.65;;;;;;;2.47;68.10;100499.97;340278;28;1267;-73
2022/03/01 00:47:56;;;;;;;299.57;74.13;;;;;;;2.46;68.12;100500.81;339867;28;809;-73
2022/03/01 00:48:07;;;;;;;300.73;75.10;;;;;;;2.44;68.53;100497.38;338341;28;1342;-73
2022/03/01 00:48:17;;;;;;;302.60;75.87;;;;;;;2.48;68.40;100504.28;339666;29;846;-73
2022/03/01 00:48:27;;;;;;;302.27;75.57;;;;;;;2.50;68.05;100500.84;340001;29;1286;-73
2022/03/01 00:48:38;;;;;;;302.10;75.17;;;;;;;2.50;68.40;100505.16;341332;28;940;-73
2022/03/01 00:48:48;;;;;;;301.20;74.73;;;;;;;2.52;68.43;100498.28;342699;28;1351;-73
2022/03/01 00:48:59;;;;;;;301.48;74.57;;;;;;;2.55;68.61;100496.59;345065;28;953;-74